Time;durP1;ratioP1;P1;durP2;ratioP2;P2;SDS_P1;SDS_P2;PMS_P1;PMS_P2;Temp;Humidity;BMP_temperature;BMP_pressure;BME280_temperature;BME280_humidity;BME280_pressure;Samples;Min_cycle;Max_cycle;Signal;HPM_P1;HPM_P2
2023/09/20 00:01:21;;;;;;;241.77;94.93;;;;;;;;;;4992481;28;20434;-48
2023/09/20 00:03:48;;;;;;;238.87;93.33;;;;;;;;;;4992794;28;20421;-47
2023/09/20 00:06:16;;;;;;;240.97;96.97;;;;;;;;;;4989132;28;20421;-48
2023/09/20 00:08:42;;;;;;;235.50;88.20;;;;;;;;;;4992767;28;20409;-47
2023/09/20 00:11:15;;;;;;;238.93;93.63;;;;;;;;;;4992420;28;20521;-48
2023/09/20 00:13:41;;;;;;;238.97;90.77;;;;;;;;;;4990170;28;20926;-48
2023/09/20 00:16:07;;;;;;;242.10;92.67;;;;;;;;;;4988963;28;20420;-47
2023/09/20 00:18:34;;;;;;;238.47;91.40;;;;;;;;;;4992497;28;20413;-46
2023/09/20 00:21:01;;;;;;;238.40;91.47;;;;;;;;;;4991494;28;20485;-46
2023/09/20 00:23:27;;;;;;;238.27;92.10;;;;;;;;;;4992212;28;20413;-46
2023/09/20 00:25:53;;;;;;;240.87;94.97;;;;;;;;;;4992413;28;20665;-48
2023/09/20 00:28:19;;;;;;;240.80;94.90;;;;;;;;;;4992542;28;20451;-47
2023/09/20 00:30:45;;;;;;;246.60;98.57;;;;;;;;;;4992172;28;20456;-46
2023/09/20 00:33:14;;;;;;;243.43;97.70;;;;;;;;;;4992293;28;20409;-46
2023/09/20 00:35:40;;;;;;;240.37;94.57;;;;;;;;;;4990338;28;20748;-47
2023/09/20 00:38:06;;;;;;;239.77;93.83;;;;;;;;;;4988671;28;20405;-46
2023/09/20 00:40:37;;;;;;;242.37;95.00;;;;;;;;;;4992230;28;20420;-48
2023/09/20 00:43:07;;;;;;;238.93;93.63;;;;;;;;;;4992307;28;20429;-47
2023/09/20 00:45:34;;;;;;;239.27;92.10;;;;;;;;;;4992266;28;20418;-47
2023/09/20 00:48:00;;;;;;;241.40;94.40;;;;;;;;;;4992259;28;20411;-46
2023/09/20 00:50:27;;;;;;;243.93;98.10;;;;;;;;;;4992163;28;20972;-47
2023/09/20 00:52:54;;;;;;;237.70;89.57;;;;;;;;;;4992207;28;20438;-47
2023/09/20 00:55:22;;;;;;;241.70;94.77;;;;;;;;;;4992053;28;20409;-47
2023/09/20 00:57:51;;;;;;;241.50;97.47;;;;;;;;;;4992251;28;20466;-47
2023/09/20 01:00:27;;;;;;;240.77;92.57;;;;;;;;;;4989686;28;20905;-47
2023/09/20 01:02:55;;;;;;;243.17;98.93;;;;;;;;;;4991558;28;20444;-47
2023/09/20 01:05:22;;;;;;;237.27;89.97;;;;;;;;;;4991879;28;20423;-48
2023/09/20 01:07:51;;;;;;;241.30;95.67;;;;;;;;;;4992391;28;20910;-46
2023/09/20 01:10:22;;;;;;;242.17;97.40;;;;;;;;;;4991676;28;20792;-45
2023/09/20 01:12:48;;;;;;;239.17;92.40;;;;;;;;;;4991921;28;20473;-45
2023/09/20 01:15:14;;;;;;;241.03;94.93;;;;;;;;;;4991705;28;20790;-46
2023/09/20 01:17:44;;;;;;;240.70;94.57;;;;;;;;;;4991984;28;20413;-46
2023/09/20 01:20:12;;;;;;;238.07;91.43;;;;;;;;;;4991852;28;20445;-47
2023/09/20 01:22:38;;;;;;;240.57;95.43;;;;;;;;;;4991680;28;20507;-46
2023/09/20 01:25:09;;;;;;;239.50;94.87;;;;;;;;;;4991926;28;20421;-46
2023/09/20 01:27:37;;;;;;;241.60;96.17;;;;;;;;;;4986452;28;20951;-47
2023/09/20 01:30:03;;;;;;;241.13;93.20;;;;;;;;;;4991698;28;20551;-48
2023/09/20 01:32:29;;;;;;;240.93;96.30;;;;;;;;;;4992612;28;20496;-48
2023/09/20 01:34:56;;;;;;;239.07;91.03;;;;;;;;;;4995214;28;20761;-46
2023/09/20 01:37:22;;;;;;;244.37;97.53;;;;;;;;;;4995264;28;20405;-47
2023/09/20 01:39:48;;;;;;;239.93;93.23;;;;;;;;;;4995269;28;20414;-45
2023/09/20 01:42:17;;;;;;;244.57;99.93;;;;;;;;;;4994900;28;20440;-46
2023/09/20 01:44:43;;;;;;;242.80;97.30;;;;;;;;;;4995068;28;20438;-47
2023/09/20 01:47:09;;;;;;;239.73;91.83;;;;;;;;;;4995090;28;20416;-48
2023/09/20 01:49:35;;;;;;;241.77;94.40;;;;;;;;;;4994872;28;20420;-45
2023/09/20 01:52:01;;;;;;;240.47;93.87;;;;;;;;;;4994736;28;20527;-45
2023/09/20 01:54:30;;;;;;;240.40;90.27;;;;;;;;;;4994910;28;20994;-46
2023/09/20 01:56:56;;;;;;;241.93;93.27;;;;;;;;;;4995084;28;20493;-45
2023/09/20 01:59:22;;;;;;;241.47;92.13;;;;;;;;;;4995221;28;20500;-45
2023/09/20 02:01:48;;;;;;;243.80;96.00;;;;;;;;;;4994589;28;20437;-47
2023/09/20 02:04:15;;;;;;;243.27;95.17;;;;;;;;;;4994710;28;20419;-46
2023/09/20 02:06:41;;;;;;;242.00;93.67;;;;;;;;;;4994833;28;20412;-47
2023/09/20 02:09:08;;;;;;;243.40;95.70;;;;;;;;;;4994889;28;20911;-46
2023/09/20 02:11:34;;;;;;;241.57;90.57;;;;;;;;;;4986457;28;20472;-45
2023/09/20 02:14:00;;;;;;;243.10;96.13;;;;;;;;;;4994649;28;20479;-47
2023/09/20 02:16:26;;;;;;;247.77;97.73;;;;;;;;;;4994647;28;20451;-45
2023/09/20 02:18:53;;;;;;;248.87;98.13;;;;;;;;;;4994632;28;20413;-47
2023/09/20 02:21:19;;;;;;;244.93;92.77;;;;;;;;;;4993425;28;20443;-46
2023/09/20 02:23:45;;;;;;;248.23;99.57;;;;;;;;;;4994792;28;20507;-47
2023/09/20 02:26:12;;;;;;;250.13;101.57;;;;;;;;;;4991049;28;20867;-47
2023/09/20 02:28:38;;;;;;;240.87;92.53;;;;;;;;;;4994466;28;20547;-48
2023/09/20 02:31:05;;;;;;;243.73;96.27;;;;;;;;;;4994156;28;20550;-47
2023/09/20 02:33:31;;;;;;;242.37;95.67;;;;;;;;;;4994196;28;20404;-47
2023/09/20 02:35:57;;;;;;;243.50;92.87;;;;;;;;;;4979667;28;20901;-47
2023/09/20 02:38:23;;;;;;;246.47;95.43;;;;;;;;;;4986703;28;20417;-48
2023/09/20 02:40:50;;;;;;;246.13;94.00;;;;;;;;;;4990537;28;20459;-48
2023/09/20 02:43:16;;;;;;;246.17;95.83;;;;;;;;;;4987757;28;20413;-47
2023/09/20 02:45:45;;;;;;;242.60;91.70;;;;;;;;;;4983585;28;20417;-47
2023/09/20 02:48:12;;;;;;;244.20;94.30;;;;;;;;;;4991290;28;20414;-46
2023/09/20 02:50:41;;;;;;;243.80;91.47;;;;;;;;;;4993996;28;20561;-46
2023/09/20 02:53:07;;;;;;;242.70;94.87;;;;;;;;;;4994363;28;20427;-47
2023/09/20 02:55:34;;;;;;;244.63;93.93;;;;;;;;;;4994325;28;20501;-47
2023/09/20 02:58:00;;;;;;;244.17;94.43;;;;;;;;;;4988940;28;20414;-47
2023/09/20 03:00:31;;;;;;;242.37;90.77;;;;;;;;;;4993691;28;20465;-46
2023/09/20 03:03:00;;;;;;;238.87;89.07;;;;;;;;;;4993733;28;20463;-48
2023/09/20 03:05:27;;;;;;;242.77;92.93;;;;;;;;;;4993818;28;20412;-48
2023/09/20 03:07:54;;;;;;;243.70;93.03;;;;;;;;;;4993753;28;20405;-46
2023/09/20 03:10:21;;;;;;;241.73;90.47;;;;;;;;;;4993629;28;20483;-47
2023/09/20 03:12:48;;;;;;;242.03;92.73;;;;;;;;;;4993476;28;20431;-47
2023/09/20 03:15:17;;;;;;;240.30;89.23;;;;;;;;;;4993536;28;20422;-48
2023/09/20 03:17:47;;;;;;;242.43;92.60;;;;;;;;;;4993838;28;20412;-47
2023/09/20 03:20:15;;;;;;;241.50;89.60;;;;;;;;;;4988523;28;20444;-47
2023/09/20 03:22:41;;;;;;;240.67;89.47;;;;;;;;;;4993366;28;20505;-47
2023/09/20 03:25:13;;;;;;;239.77;89.13;;;;;;;;;;4988613;28;20832;-46
2023/09/20 03:27:40;;;;;;;240.90;89.63;;;;;;;;;;4991455;28;20985;-47
2023/09/20 03:30:13;;;;;;;241.37;92.40;;;;;;;;;;4992753;28;20486;-48
2023/09/20 03:32:40;;;;;;;243.37;92.03;;;;;;;;;;4993216;28;20427;-46
2023/09/20 03:35:07;;;;;;;242.70;90.90;;;;;;;;;;4993210;28;20412;-47
2023/09/20 03:37:36;;;;;;;241.90;91.43;;;;;;;;;;4993029;28;20449;-48
2023/09/20 03:40:03;;;;;;;241.63;88.23;;;;;;;;;;4988040;28;20603;-47
2023/09/20 03:42:29;;;;;;;241.07;89.43;;;;;;;;;;4992799;28;20517;-46
2023/09/20 03:44:55;;;;;;;238.10;87.87;;;;;;;;;;4992937;28;20863;-46
2023/09/20 03:47:21;;;;;;;242.20;91.13;;;;;;;;;;4992998;28;20754;-47
2023/09/20 03:49:51;;;;;;;242.17;91.23;;;;;;;;;;4992848;28;20771;-47
2023/09/20 03:52:18;;;;;;;241.27;89.93;;;;;;;;;;4992802;28;20514;-46
2023/09/20 03:54:49;;;;;;;243.60;93.63;;;;;;;;;;4992716;28;20798;-46
2023/09/20 03:57:15;;;;;;;240.37;89.67;;;;;;;;;;4993066;28;20443;-47
2023/09/20 03:59:41;;;;;;;243.20;96.63;;;;;;;;;;4992850;28;20412;-47
2023/09/20 04:02:13;;;;;;;241.07;89.33;;;;;;;;;;4992533;28;20792;-47
2023/09/20 04:04:40;;;;;;;239.83;89.70;;;;;;;;;;4985526;28;20406;-47
2023/09/20 04:07:06;;;;;;;244.60;96.97;;;;;;;;;;4992829;28;20412;-47
2023/09/20 04:09:32;;;;;;;243.93;93.97;;;;;;;;;;4991230;28;20892;-47
2023/09/20 04:12:03;;;;;;;241.90;93.90;;;;;;;;;;4987797;28;20465;-48
2023/09/20 04:14:29;;;;;;;240.73;92.53;;;;;;;;;;4976660;28;20402;-47
2023/09/20 04:16:55;;;;;;;243.90;95.37;;;;;;;;;;4991137;28;20752;-47
2023/09/20 04:19:21;;;;;;;241.67;89.63;;;;;;;;;;4993099;28;20499;-47
2023/09/20 04:21:50;;;;;;;243.77;94.37;;;;;;;;;;4992525;28;20418;-48
2023/09/20 04:24:17;;;;;;;241.27;89.70;;;;;;;;;;4992669;28;20502;-48
2023/09/20 04:26:43;;;;;;;240.90;90.47;;;;;;;;;;4988095;28;20474;-48
2023/09/20 04:29:10;;;;;;;244.37;97.70;;;;;;;;;;4989033;28;20417;-47
2023/09/20 04:31:37;;;;;;;246.63;98.27;;;;;;;;;;4992350;28;20455;-46
2023/09/20 04:34:05;;;;;;;239.50;90.70;;;;;;;;;;4992457;28;20446;-46
2023/09/20 04:36:31;;;;;;;242.23;94.40;;;;;;;;;;4992488;28;20439;-47
2023/09/20 04:38:57;;;;;;;240.83;93.13;;;;;;;;;;4992344;28;20443;-48
2023/09/20 04:41:23;;;;;;;238.53;89.30;;;;;;;;;;4992069;28;20467;-47
2023/09/20 04:43:49;;;;;;;242.67;95.37;;;;;;;;;;4992374;28;20492;-47
2023/09/20 04:46:15;;;;;;;243.17;94.23;;;;;;;;;;4992482;28;20816;-47
2023/09/20 04:48:41;;;;;;;242.43;94.20;;;;;;;;;;4991730;28;20415;-47
2023/09/20 04:51:09;;;;;;;243.87;94.07;;;;;;;;;;4972779;28;20456;-47
2023/09/20 04:53:35;;;;;;;242.70;92.40;;;;;;;;;;4990546;28;20419;-47
2023/09/20 04:56:06;;;;;;;241.47;91.43;;;;;;;;;;4992101;28;20407;-48
2023/09/20 04:58:32;;;;;;;243.67;95.37;;;;;;;;;;4992247;28;20400;-47
2023/09/20 05:00:58;;;;;;;242.97;93.93;;;;;;;;;;4991995;28;20852;-48
2023/09/20 05:03:24;;;;;;;244.40;96.23;;;;;;;;;;4987383;28;20413;-46
2023/09/20 05:05:51;;;;;;;247.37;99.67;;;;;;;;;;4992034;28;20634;-46
2023/09/20 05:08:18;;;;;;;241.90;92.47;;;;;;;;;;4994478;28;20416;-47
2023/09/20 05:10:44;;;;;;;242.87;95.07;;;;;;;;;;4995660;28;20458;-46
2023/09/20 05:13:10;;;;;;;237.63;85.73;;;;;;;;;;4995878;28;20501;-48
2023/09/20 05:15:39;;;;;;;238.73;87.67;;;;;;;;;;4995826;28;20422;-46
2023/09/20 05:18:06;;;;;;;242.77;90.53;;;;;;;;;;4995721;28;20419;-47
2023/09/20 05:20:33;;;;;;;240.50;90.37;;;;;;;;;;4986185;28;20411;-46
2023/09/20 05:23:03;;;;;;;241.80;88.53;;;;;;;;;;4991048;28;20956;-47
2023/09/20 05:25:29;;;;;;;243.47;88.87;;;;;;;;;;4995668;28;20408;-48
2023/09/20 05:27:55;;;;;;;242.00;89.17;;;;;;;;;;4995415;28;20459;-47
2023/09/20 05:30:21;;;;;;;244.10;91.43;;;;;;;;;;4995424;28;20487;-47
2023/09/20 05:32:51;;;;;;;241.93;89.03;;;;;;;;;;4995354;28;20431;-48
2023/09/20 05:35:17;;;;;;;242.10;87.33;;;;;;;;;;4995432;28;20414;-46
2023/09/20 05:37:43;;;;;;;242.40;90.07;;;;;;;;;;4995115;28;20404;-47
2023/09/20 05:40:18;;;;;;;238.87;88.13;;;;;;;;;;4995271;28;20914;-47
2023/09/20 05:42:46;;;;;;;241.50;89.97;;;;;;;;;;4992241;28;20793;-48
2023/09/20 05:45:12;;;;;;;241.73;90.10;;;;;;;;;;4995052;28;20427;-47
2023/09/20 05:47:40;;;;;;;242.07;88.87;;;;;;;;;;4995218;28;20439;-47
2023/09/20 05:50:07;;;;;;;239.57;85.67;;;;;;;;;;4995282;28;20466;-47
2023/09/20 05:52:33;;;;;;;241.47;90.90;;;;;;;;;;4994816;28;20426;-46
2023/09/20 05:54:59;;;;;;;241.23;90.13;;;;;;;;;;4995111;28;20397;-48
2023/09/20 05:57:27;;;;;;;239.03;88.67;;;;;;;;;;4992160;28;20414;-46
2023/09/20 05:59:54;;;;;;;240.97;90.87;;;;;;;;;;4990579;28;20423;-48
2023/09/20 06:02:20;;;;;;;241.37;91.07;;;;;;;;;;4994966;28;20463;-47
2023/09/20 06:04:47;;;;;;;241.10;88.47;;;;;;;;;;4995098;28;20906;-47
2023/09/20 06:07:14;;;;;;;241.17;89.17;;;;;;;;;;4994902;28;20455;-48
2023/09/20 06:09:40;;;;;;;241.33;91.57;;;;;;;;;;4994905;28;20438;-47
2023/09/20 06:12:06;;;;;;;244.43;96.47;;;;;;;;;;4994457;28;20466;-48
2023/09/20 06:14:32;;;;;;;239.87;88.67;;;;;;;;;;4994738;28;20871;-47
2023/09/20 06:17:00;;;;;;;241.10;89.57;;;;;;;;;;4988818;28;20775;-46
2023/09/20 06:19:30;;;;;;;237.27;86.30;;;;;;;;;;4993333;28;20412;-48
2023/09/20 06:21:57;;;;;;;242.53;90.33;;;;;;;;;;4993365;28;20932;-47
2023/09/20 06:24:23;;;;;;;240.93;90.63;;;;;;;;;;4994579;28;20774;-46
2023/09/20 06:26:49;;;;;;;239.17;88.43;;;;;;;;;;4994434;28;20414;-48
2023/09/20 06:29:15;;;;;;;241.27;92.40;;;;;;;;;;4994466;28;20410;-47
2023/09/20 06:31:41;;;;;;;240.93;89.80;;;;;;;;;;4994220;28;20467;-48
2023/09/20 06:34:07;;;;;;;240.93;91.40;;;;;;;;;;4987047;28;20408;-48
2023/09/20 06:36:33;;;;;;;243.93;91.97;;;;;;;;;;4994461;28;20463;-48
2023/09/20 06:38:59;;;;;;;243.43;91.37;;;;;;;;;;4994356;28;20408;-47
2023/09/20 06:41:25;;;;;;;245.97;96.37;;;;;;;;;;4989791;28;20496;-47
2023/09/20 06:43:51;;;;;;;244.93;96.93;;;;;;;;;;4990684;28;20433;-46
2023/09/20 06:46:21;;;;;;;246.13;97.83;;;;;;;;;;4990894;28;20425;-46
2023/09/20 06:48:47;;;;;;;252.40;103.97;;;;;;;;;;4993952;28;20461;-46
2023/09/20 06:51:13;;;;;;;251.73;103.37;;;;;;;;;;4992041;28;20468;-47
2023/09/20 06:53:40;;;;;;;251.70;107.03;;;;;;;;;;4992383;28;20941;-47
2023/09/20 06:56:06;;;;;;;246.50;97.77;;;;;;;;;;4989514;28;20450;-47
2023/09/20 06:58:34;;;;;;;247.87;100.43;;;;;;;;;;4992479;28;20420;-47
2023/09/20 07:01:03;;;;;;;244.03;97.67;;;;;;;;;;4993848;28;20866;-47
2023/09/20 07:03:28;;;;;;;248.07;101.57;;;;;;;;;;4990480;28;20844;-47
2023/09/20 07:05:54;;;;;;;249.07;106.30;;;;;;;;;;4988483;28;20408;-46
2023/09/20 07:08:21;;;;;;;248.97;101.93;;;;;;;;;;4993598;28;20896;-47
2023/09/20 07:10:47;;;;;;;248.97;105.73;;;;;;;;;;4993435;28;20880;-47
2023/09/20 07:13:17;;;;;;;248.97;103.60;;;;;;;;;;4993618;28;20450;-47
2023/09/20 07:15:43;;;;;;;246.37;101.60;;;;;;;;;;4993744;28;20412;-47
2023/09/20 07:18:12;;;;;;;244.17;98.93;;;;;;;;;;4993664;28;20415;-48
2023/09/20 07:20:39;;;;;;;249.83;103.03;;;;;;;;;;4986934;28;20425;-46
2023/09/20 07:23:08;;;;;;;244.70;97.17;;;;;;;;;;4981722;28;20481;-47
2023/09/20 07:25:35;;;;;;;249.33;103.57;;;;;;;;;;4985912;28;20784;-47
2023/09/20 07:28:03;;;;;;;245.53;96.47;;;;;;;;;;4993380;28;20477;-46
2023/09/20 07:30:31;;;;;;;246.47;97.47;;;;;;;;;;4993003;28;20811;-48
2023/09/20 07:33:01;;;;;;;243.43;94.33;;;;;;;;;;4993307;28;20514;-47
2023/09/20 07:35:28;;;;;;;248.40;100.83;;;;;;;;;;4982904;28;20489;-47
2023/09/20 07:37:57;;;;;;;244.83;96.47;;;;;;;;;;4993162;28;20408;-47
2023/09/20 07:40:35;;;;;;;247.27;99.37;;;;;;;;;;4992977;28;20505;-47
2023/09/20 07:43:04;;;;;;;250.07;104.63;;;;;;;;;;4993323;28;20486;-47
2023/09/20 07:45:38;;;;;;;245.40;99.00;;;;;;;;;;4993315;28;20786;-47
2023/09/20 07:48:16;;;;;;;251.07;105.63;;;;;;;;;;4993564;28;20754;-48
2023/09/20 07:50:43;;;;;;;255.10;109.23;;;;;;;;;;4985512;28;20444;-46
2023/09/20 07:53:10;;;;;;;247.40;103.13;;;;;;;;;;4989771;28;20408;-47
2023/09/20 07:55:46;;;;;;;246.80;101.17;;;;;;;;;;4993325;28;20757;-47
2023/09/20 07:58:13;;;;;;;249.20;108.00;;;;;;;;;;4985774;28;20408;-48
2023/09/20 08:00:40;;;;;;;248.23;102.33;;;;;;;;;;4992738;28;20408;-48
2023/09/20 08:03:06;;;;;;;253.03;114.70;;;;;;;;;;4983051;28;20417;-48
2023/09/20 08:05:33;;;;;;;249.50;107.90;;;;;;;;;;4992522;28;20758;-47
2023/09/20 08:07:59;;;;;;;250.37;110.30;;;;;;;;;;4988692;28;20413;-47
2023/09/20 08:10:25;;;;;;;253.37;111.93;;;;;;;;;;4989603;28;20526;-48
2023/09/20 08:12:51;;;;;;;249.97;108.13;;;;;;;;;;4990620;28;20439;-48
2023/09/20 08:15:17;;;;;;;247.63;107.90;;;;;;;;;;4992488;28;20951;-47
2023/09/20 08:20:28;;;;;;;254.50;115.63;;;;;;;;;;4985582;28;20408;-47
2023/09/20 09:01:36;;;;;;;252.33;112.37;;;;;;;;;;4994529;28;20431;-48
2023/09/20 09:04:02;;;;;;;251.60;114.27;;;;;;;;;;4996145;28;20913;-46
2023/09/20 09:06:29;;;;;;;251.77;113.20;;;;;;;;;;4996208;28;20415;-46
2023/09/20 09:08:55;;;;;;;248.77;111.47;;;;;;;;;;4995964;28;20411;-46
2023/09/20 09:11:23;;;;;;;252.47;115.20;;;;;;;;;;4994864;28;20467;-45
2023/09/20 09:13:49;;;;;;;248.90;110.10;;;;;;;;;;4993737;28;20958;-46
2023/09/20 09:16:15;;;;;;;250.17;110.67;;;;;;;;;;4995883;28;20416;-47
2023/09/20 09:18:41;;;;;;;248.53;110.20;;;;;;;;;;4995641;28;20403;-47
2023/09/20 09:21:08;;;;;;;248.73;109.67;;;;;;;;;;4995613;28;20962;-45
2023/09/20 09:23:37;;;;;;;247.33;107.33;;;;;;;;;;4987772;28;20411;-47
2023/09/20 09:26:04;;;;;;;248.53;106.67;;;;;;;;;;4995673;28;20414;-46
2023/09/20 09:28:31;;;;;;;246.90;110.10;;;;;;;;;;4995669;28;20400;-47
2023/09/20 09:30:58;;;;;;;250.53;110.23;;;;;;;;;;4995387;28;20990;-47
2023/09/20 09:33:25;;;;;;;250.40;114.53;;;;;;;;;;4995027;28;20408;-46
2023/09/20 09:35:51;;;;;;;248.57;111.07;;;;;;;;;;4995540;28;20411;-45
2023/09/20 09:38:21;;;;;;;253.27;116.37;;;;;;;;;;4994727;28;20412;-46
2023/09/20 09:40:52;;;;;;;249.73;110.33;;;;;;;;;;4995332;28;20404;-48
2023/09/20 09:43:18;;;;;;;248.00;110.03;;;;;;;;;;4995095;28;20422;-47
2023/09/20 09:45:48;;;;;;;248.27;112.33;;;;;;;;;;4995372;28;20409;-46
2023/09/20 09:48:17;;;;;;;247.57;109.40;;;;;;;;;;4995225;28;20828;-48
2023/09/20 09:50:46;;;;;;;248.97;110.60;;;;;;;;;;4988352;28;20459;-48
2023/09/20 09:53:14;;;;;;;247.43;110.50;;;;;;;;;;4994405;28;20418;-46
2023/09/20 09:55:40;;;;;;;252.67;120.20;;;;;;;;;;4993134;28;20787;-47
2023/09/20 09:58:08;;;;;;;247.80;108.87;;;;;;;;;;4991433;28;20415;-48
2023/09/20 10:00:39;;;;;;;250.03;112.73;;;;;;;;;;4986947;28;20418;-47
2023/09/20 10:03:24;;;;;;;250.00;113.57;;;;;;;;;;4994950;28;20446;-47
2023/09/20 10:05:52;;;;;;;251.17;117.87;;;;;;;;;;4989031;28;20998;-46
2023/09/20 10:08:21;;;;;;;252.23;116.77;;;;;;;;;;4994828;28;20418;-46
2023/09/20 10:10:47;;;;;;;252.93;118.10;;;;;;;;;;4994528;28;20456;-48
2023/09/20 10:13:14;;;;;;;249.33;112.67;;;;;;;;;;4994699;28;20423;-46
2023/09/20 10:15:43;;;;;;;249.37;115.57;;;;;;;;;;4994757;28;20405;-47
2023/09/20 10:18:09;;;;;;;249.40;116.07;;;;;;;;;;4994616;28;20416;-47
2023/09/20 10:20:54;;;;;;;254.77;118.97;;;;;;;;;;4994164;28;20900;-46
2023/09/20 10:23:21;;;;;;;250.80;116.03;;;;;;;;;;4992682;28;20475;-48
2023/09/20 10:25:48;;;;;;;247.50;111.57;;;;;;;;;;4991114;28;20404;-47
2023/09/20 10:28:17;;;;;;;250.23;112.83;;;;;;;;;;4989771;28;20413;-46
2023/09/20 10:31:01;;;;;;;253.53;114.80;;;;;;;;;;4990895;28;20496;-46
2023/09/20 10:33:45;;;;;;;252.70;119.17;;;;;;;;;;4989690;28;20511;-46
2023/09/20 10:36:20;;;;;;;252.97;120.30;;;;;;;;;;4977527;28;20902;-46
2023/09/20 10:38:47;;;;;;;252.53;117.63;;;;;;;;;;4994177;28;20477;-46
2023/09/20 10:41:13;;;;;;;249.87;113.77;;;;;;;;;;4994106;28;20525;-47
2023/09/20 10:43:41;;;;;;;248.23;112.53;;;;;;;;;;4977089;28;20435;-47
2023/09/20 10:46:17;;;;;;;252.47;118.47;;;;;;;;;;4989186;28;20436;-46
2023/09/20 10:48:52;;;;;;;247.93;111.93;;;;;;;;;;4994205;28;20439;-47
2023/09/20 10:51:37;;;;;;;247.67;107.90;;;;;;;;;;4983073;28;20820;-47
2023/09/20 10:54:17;;;;;;;249.93;113.67;;;;;;;;;;4985216;28;20414;-47
2023/09/20 10:56:46;;;;;;;249.43;114.17;;;;;;;;;;4987458;28;20403;-47
2023/09/20 10:59:16;;;;;;;251.37;116.27;;;;;;;;;;4993647;28;20788;-47
2023/09/20 11:01:48;;;;;;;255.43;122.60;;;;;;;;;;4992938;28;20514;-47
2023/09/20 11:04:14;;;;;;;252.60;122.07;;;;;;;;;;4993480;28;20407;-46
2023/09/20 11:06:43;;;;;;;253.00;122.23;;;;;;;;;;4993430;28;20400;-46
2023/09/20 11:09:11;;;;;;;251.93;120.17;;;;;;;;;;4990104;28;20444;-48
2023/09/20 11:11:37;;;;;;;253.43;122.00;;;;;;;;;;4988621;28;20475;-46
2023/09/20 11:14:03;;;;;;;254.63;126.53;;;;;;;;;;4993656;28;20408;-48
2023/09/20 11:16:30;;;;;;;252.20;124.80;;;;;;;;;;4993587;28;20407;-46
2023/09/20 11:18:56;;;;;;;253.57;123.17;;;;;;;;;;4993545;28;20414;-47
2023/09/20 11:21:24;;;;;;;249.97;119.90;;;;;;;;;;4993171;28;20518;-47
2023/09/20 11:23:50;;;;;;;251.13;117.57;;;;;;;;;;4993571;28;20503;-47
2023/09/20 11:26:26;;;;;;;251.80;119.90;;;;;;;;;;4993586;28;20756;-46
2023/09/20 11:28:52;;;;;;;252.73;122.60;;;;;;;;;;4988002;28;20408;-48
2023/09/20 11:31:28;;;;;;;253.57;122.30;;;;;;;;;;4993060;28;20982;-48
2023/09/20 11:33:58;;;;;;;251.67;119.87;;;;;;;;;;4993410;28;20469;-46
2023/09/20 11:36:24;;;;;;;257.10;132.93;;;;;;;;;;4993302;28;20411;-46
2023/09/20 11:38:51;;;;;;;250.97;120.20;;;;;;;;;;4993214;28;20470;-45
2023/09/20 11:41:18;;;;;;;250.43;119.80;;;;;;;;;;4992771;28;20442;-46
2023/09/20 11:43:46;;;;;;;253.37;125.30;;;;;;;;;;4993022;28;20579;-46
2023/09/20 11:46:11;;;;;;;250.97;118.70;;;;;;;;;;4992869;28;20407;-47
2023/09/20 11:48:38;;;;;;;250.87;118.40;;;;;;;;;;4992969;28;20406;-46
2023/09/20 11:51:04;;;;;;;254.37;124.47;;;;;;;;;;4992593;28;20558;-48
2023/09/20 11:53:30;;;;;;;251.33;119.47;;;;;;;;;;4992841;28;20408;-47
2023/09/20 11:55:59;;;;;;;250.33;119.00;;;;;;;;;;4992832;28;20408;-48
2023/09/20 11:58:24;;;;;;;254.07;125.30;;;;;;;;;;4992970;28;20440;-46
2023/09/20 12:00:51;;;;;;;254.47;127.57;;;;;;;;;;4991258;28;20551;-47
2023/09/20 12:03:17;;;;;;;253.93;127.83;;;;;;;;;;4989617;28;20500;-47
2023/09/20 12:05:43;;;;;;;255.87;127.83;;;;;;;;;;4991376;28;20494;-49
2023/09/20 12:08:09;;;;;;;254.07;126.97;;;;;;;;;;4989400;28;20488;-48
2023/09/20 12:10:35;;;;;;;260.87;136.70;;;;;;;;;;4986018;28;20558;-46
2023/09/20 12:13:01;;;;;;;257.40;139.17;;;;;;;;;;4984606;28;20835;-46
2023/09/20 12:15:27;;;;;;;257.77;138.17;;;;;;;;;;4992474;28;20745;-46
2023/09/20 12:17:56;;;;;;;256.87;141.27;;;;;;;;;;4992574;28;20487;-46
2023/09/20 12:20:25;;;;;;;255.10;137.20;;;;;;;;;;4992273;28;20970;-47
2023/09/20 12:22:52;;;;;;;255.77;140.23;;;;;;;;;;4992172;28;20439;-48
2023/09/20 12:25:19;;;;;;;256.97;137.53;;;;;;;;;;4992406;28;20759;-47
2023/09/20 12:27:48;;;;;;;251.50;126.90;;;;;;;;;;4992513;28;20483;-47
2023/09/20 12:30:14;;;;;;;254.43;135.93;;;;;;;;;;4990660;28;20408;-46
2023/09/20 12:32:41;;;;;;;253.23;132.23;;;;;;;;;;4992289;28;20431;-46
2023/09/20 12:35:09;;;;;;;251.50;127.20;;;;;;;;;;4992381;28;20468;-47
2023/09/20 12:37:35;;;;;;;255.97;138.33;;;;;;;;;;4984247;28;20963;-47
2023/09/20 12:40:06;;;;;;;254.20;133.43;;;;;;;;;;4985303;28;20405;-46
2023/09/20 12:42:34;;;;;;;258.23;145.63;;;;;;;;;;4991746;28;20523;-47
2023/09/20 12:45:04;;;;;;;256.90;141.03;;;;;;;;;;4992420;28;20428;-45
2023/09/20 12:47:31;;;;;;;253.67;137.60;;;;;;;;;;4992234;28;20411;-47
2023/09/20 12:49:57;;;;;;;253.13;136.33;;;;;;;;;;4992015;28;20408;-47
2023/09/20 12:52:23;;;;;;;256.93;141.87;;;;;;;;;;4991792;28;20956;-46
2023/09/20 12:54:49;;;;;;;253.00;134.50;;;;;;;;;;4992190;28;20408;-46
2023/09/20 12:57:15;;;;;;;256.40;136.77;;;;;;;;;;4990788;28;20412;-45
2023/09/20 12:59:41;;;;;;;257.10;140.97;;;;;;;;;;4989042;28;20828;-47
2023/09/20 13:02:08;;;;;;;253.40;134.27;;;;;;;;;;4987407;28;20988;-46
2023/09/20 13:04:34;;;;;;;255.93;140.80;;;;;;;;;;4991969;28;20416;-46
2023/09/20 13:07:00;;;;;;;256.23;142.03;;;;;;;;;;4992338;28;20786;-47
2023/09/20 13:09:27;;;;;;;254.17;145.20;;;;;;;;;;4991805;28;20928;-47
2023/09/20 13:11:53;;;;;;;258.90;149.73;;;;;;;;;;4990348;28;20467;-47
2023/09/20 13:14:19;;;;;;;251.70;136.80;;;;;;;;;;4988896;28;20462;-46
2023/09/20 13:16:49;;;;;;;254.03;144.37;;;;;;;;;;4991977;28;20915;-47
2023/09/20 13:19:16;;;;;;;252.53;140.43;;;;;;;;;;4991644;28;20851;-47
2023/09/20 13:21:42;;;;;;;252.63;142.93;;;;;;;;;;4991548;28;20427;-46
2023/09/20 13:24:11;;;;;;;249.90;136.87;;;;;;;;;;4991854;28;20812;-46
2023/09/20 13:26:38;;;;;;;252.70;142.90;;;;;;;;;;4984336;28;20404;-46
2023/09/20 13:29:04;;;;;;;252.57;143.90;;;;;;;;;;4990966;28;20375;-46
2023/09/20 13:31:30;;;;;;;253.33;147.83;;;;;;;;;;4990532;28;20434;-46
2023/09/20 13:33:56;;;;;;;252.87;146.67;;;;;;;;;;4989384;28;20374;-47
2023/09/20 13:36:22;;;;;;;254.93;150.13;;;;;;;;;;4995356;28;20419;-46
2023/09/20 13:38:48;;;;;;;250.30;142.93;;;;;;;;;;4995200;28;20378;-46
2023/09/20 13:41:14;;;;;;;254.17;150.30;;;;;;;;;;4995142;28;20979;-47
2023/09/20 13:43:42;;;;;;;254.07;150.47;;;;;;;;;;4995132;28;20519;-47
2023/09/20 13:46:15;;;;;;;252.70;150.43;;;;;;;;;;4995301;28;20430;-48
2023/09/20 13:48:42;;;;;;;252.87;148.33;;;;;;;;;;4994157;28;20415;-46
2023/09/20 13:51:16;;;;;;;248.97;141.53;;;;;;;;;;4994838;28;20524;-45
2023/09/20 13:53:42;;;;;;;251.50;144.23;;;;;;;;;;4989533;28;20406;-46
2023/09/20 13:56:08;;;;;;;253.13;146.90;;;;;;;;;;4995087;28;20439;-47
2023/09/20 13:58:35;;;;;;;254.93;147.87;;;;;;;;;;4982565;28;20466;-46
2023/09/20 14:01:03;;;;;;;254.63;149.33;;;;;;;;;;4991769;28;20505;-47
2023/09/20 14:03:29;;;;;;;254.07;143.17;;;;;;;;;;4992712;28;20448;-45
2023/09/20 14:05:55;;;;;;;253.60;142.47;;;;;;;;;;4989763;28;20858;-46
2023/09/20 14:08:21;;;;;;;254.47;140.23;;;;;;;;;;4994154;28;20432;-47
2023/09/20 14:10:47;;;;;;;255.23;137.03;;;;;;;;;;4994225;28;20530;-46
2023/09/20 14:13:13;;;;;;;255.50;142.23;;;;;;;;;;4990255;28;20419;-47
2023/09/20 14:15:39;;;;;;;255.83;142.67;;;;;;;;;;4994574;28;20412;-47
2023/09/20 14:18:08;;;;;;;256.60;142.80;;;;;;;;;;4994550;28;20408;-47
2023/09/20 14:20:33;;;;;;;258.20;147.67;;;;;;;;;;4986324;28;20495;-46
2023/09/20 14:22:59;;;;;;;251.97;141.13;;;;;;;;;;4994328;28;20523;-46
2023/09/20 14:25:28;;;;;;;253.33;143.47;;;;;;;;;;4994398;28;20412;-45
2023/09/20 14:27:58;;;;;;;251.90;142.20;;;;;;;;;;4995197;28;20415;-47
2023/09/20 14:30:24;;;;;;;254.07;138.93;;;;;;;;;;4993484;28;20767;-47
2023/09/20 14:32:53;;;;;;;248.77;135.70;;;;;;;;;;4993946;28;20510;-45
2023/09/20 14:35:19;;;;;;;254.23;146.57;;;;;;;;;;4993663;28;20853;-48
2023/09/20 14:37:47;;;;;;;254.13;143.57;;;;;;;;;;4994242;28;20387;-47
2023/09/20 14:40:17;;;;;;;248.87;134.63;;;;;;;;;;4988648;28;20424;-46
2023/09/20 14:42:44;;;;;;;249.80;136.67;;;;;;;;;;4993668;28;20428;-47